Terminal Aerodrome Forecast
Issued by NWS

Home | Current Version | Previous Version | Text Only | Print | Product List | Glossary On
Versions: 1 2 3 4 5 6 7 8 9 10 11 12 13 14 15 16 17 18 19 20 21 22 23 24 25 26 27 28 29 30
000
FTUS45 KGJT 110541
TAFASE
TAF
KASE 110541Z 1106/1206 VRB03KT P6SM VCSH BKN050 OVC070
      WS020/24035KT
      TEMPO 1106/1110 26009KT 2SM -SN BLSN OVC040
     FM111000 26009KT 3SM -SN BLSN OVC040 WS020/26040KT
      TEMPO 1110/1114 1 1/2SM -SN BLSN OVC035
     FM111400 28010G20KT 2SM -SN BLSN OVC035
     FM111700 28011G21KT P6SM VCSH BKN035
     FM112300 23008KT P6SM BKN050=

USA.gov is the U.S. government's official web portal to all federal, state and local government web resources and services.